Time;durP1;ratioP1;P1;durP2;ratioP2;P2;SDS_P1;SDS_P2;PMS_P1;PMS_P2;Temp;Humidity;BMP_temperature;BMP_pressure;BME280_temperature;BME280_humidity;BME280_pressure;Samples;Min_cycle;Max_cycle;Signal;HPM_P1;HPM_P2
2023/11/13 00:02:04;;;;;;;92.07;37.85;;;6.60;99.90;;;;;;5102606;27;20181;-59
2023/11/13 00:04:30;;;;;;;73.30;36.85;;;6.60;99.90;;;;;;5122533;27;20216;-57
2023/11/13 00:06:56;;;;;;;83.68;37.35;;;6.60;99.90;;;;;;5121310;27;20272;-57
2023/11/13 00:09:23;;;;;;;99.15;36.60;;;6.60;99.90;;;;;;5122465;27;20545;-54
2023/11/13 00:11:48;;;;;;;81.25;35.22;;;6.70;99.90;;;;;;5122116;27;20261;-55
2023/11/13 00:14:14;;;;;;;108.15;37.53;;;6.70;99.90;;;;;;5104612;27;20644;-58
2023/11/13 00:16:40;;;;;;;74.32;37.30;;;6.70;99.90;;;;;;5121010;27;20549;-58
2023/11/13 00:19:06;;;;;;;70.50;36.15;;;6.70;99.90;;;;;;5122113;27;20197;-60
2023/11/13 00:21:33;;;;;;;88.18;36.10;;;6.70;99.90;;;;;;5122649;27;20191;-60
2023/11/13 00:23:59;;;;;;;77.30;37.20;;;6.70;99.90;;;;;;5103871;27;20299;-53
2023/11/13 00:26:25;;;;;;;75.05;37.22;;;6.70;99.90;;;;;;5121366;27;20193;-52
2023/11/13 00:28:54;;;;;;;73.65;37.03;;;6.70;99.90;;;;;;5122969;27;20216;-53
2023/11/13 00:31:20;;;;;;;66.05;36.60;;;6.70;99.90;;;;;;5084594;27;20188;-58
2023/11/13 00:33:46;;;;;;;86.68;38.22;;;6.80;99.90;;;;;;5087381;27;20200;-58
2023/11/13 00:36:12;;;;;;;69.57;37.13;;;6.80;99.90;;;;;;5089613;27;20190;-56
2023/11/13 00:38:38;;;;;;;77.93;37.42;;;6.80;99.90;;;;;;5120519;27;20571;-58
2023/11/13 00:41:09;;;;;;;75.15;37.40;;;6.80;99.90;;;;;;5122051;27;20707;-60
2023/11/13 00:43:35;;;;;;;70.97;36.63;;;6.80;99.90;;;;;;5122660;27;20264;-58
2023/11/13 00:46:02;;;;;;;78.90;36.40;;;6.80;99.90;;;;;;5102779;28;20338;-58
2023/11/13 00:48:28;;;;;;;67.63;37.65;;;6.80;99.90;;;;;;5103454;27;20188;-55
2023/11/13 00:50:54;;;;;;;79.28;37.67;;;6.80;99.90;;;;;;5103423;27;20176;-51
2023/11/13 00:53:20;;;;;;;70.18;36.22;;;6.80;99.90;;;;;;5103329;27;20191;-57
2023/11/13 00:55:46;;;;;;;66.72;35.80;;;6.80;99.90;;;;;;5092295;27;20188;-56
2023/11/13 00:58:12;;;;;;;71.63;34.75;;;6.80;99.90;;;;;;5086532;28;20222;-54
2023/11/13 01:00:38;;;;;;;71.93;34.05;;;6.80;99.90;;;;;;5104238;28;20176;-59
2023/11/13 01:03:04;;;;;;;65.53;33.97;;;6.80;99.90;;;;;;5094314;28;20263;-59
2023/11/13 01:05:30;;;;;;;58.78;32.80;;;6.80;99.90;;;;;;5096810;28;20736;-58
2023/11/13 01:07:56;;;;;;;58.97;34.08;;;6.80;99.90;;;;;;5100979;28;20188;-60
2023/11/13 01:10:22;;;;;;;68.32;33.65;;;6.80;99.90;;;;;;5121984;28;20615;-59
2023/11/13 01:12:48;;;;;;;66.95;33.88;;;6.80;99.90;;;;;;5121592;28;20188;-60
2023/11/13 01:15:14;;;;;;;69.28;34.60;;;6.90;99.90;;;;;;5097740;28;20200;-58
2023/11/13 01:17:40;;;;;;;79.35;35.30;;;6.80;99.90;;;;;;5121735;28;20188;-58
2023/11/13 01:20:08;;;;;;;89.97;35.40;;;6.80;99.90;;;;;;5087014;28;20210;-57
2023/11/13 01:22:34;;;;;;;62.28;32.95;;;6.90;99.90;;;;;;5120962;28;20180;-57
2023/11/13 01:25:00;;;;;;;70.80;33.80;;;6.90;99.90;;;;;;5086449;28;20251;-58
2023/11/13 01:27:26;;;;;;;72.93;32.58;;;6.90;99.90;;;;;;5085893;28;20675;-57
2023/11/13 01:29:52;;;;;;;72.00;32.85;;;7.00;99.90;;;;;;5088222;28;20184;-56
2023/11/13 01:32:18;;;;;;;80.32;33.47;;;6.90;99.90;;;;;;5104455;28;20651;-56
2023/11/13 01:34:45;;;;;;;55.20;31.90;;;7.00;99.90;;;;;;5120426;28;21113;-59
2023/11/13 01:37:11;;;;;;;75.13;32.95;;;7.00;99.90;;;;;;5120567;28;20204;-58
2023/11/13 01:39:37;;;;;;;83.72;33.85;;;7.00;99.90;;;;;;5121168;28;20188;-59
2023/11/13 01:42:05;;;;;;;67.78;32.22;;;7.00;99.90;;;;;;5083081;28;20196;-58
2023/11/13 01:44:31;;;;;;;73.65;32.08;;;7.00;99.90;;;;;;5087174;28;20232;-58
2023/11/13 01:46:58;;;;;;;55.63;31.35;;;7.00;99.90;;;;;;5097215;28;20188;-58
2023/11/13 01:49:24;;;;;;;59.60;31.52;;;7.00;99.90;;;;;;5103008;28;20268;-59
2023/11/13 01:51:52;;;;;;;68.20;32.00;;;7.10;99.90;;;;;;5103563;28;20200;-58
2023/11/13 01:54:19;;;;;;;67.57;31.30;;;7.10;99.90;;;;;;5103048;28;20207;-59
2023/11/13 01:56:46;;;;;;;62.50;30.65;;;7.10;99.90;;;;;;5097053;28;20236;-59
2023/11/13 01:59:13;;;;;;;74.05;29.95;;;7.10;99.90;;;;;;5100081;27;20184;-58
2023/11/13 02:01:40;;;;;;;66.55;31.45;;;7.10;99.90;;;;;;5094447;27;20189;-56
2023/11/13 02:04:06;;;;;;;78.75;31.05;;;7.00;99.90;;;;;;5125639;27;20716;-57
2023/11/13 02:06:32;;;;;;;49.70;29.98;;;7.00;99.90;;;;;;5105707;27;20208;-55
2023/11/13 02:08:58;;;;;;;73.80;31.15;;;7.00;99.90;;;;;;5088976;27;20185;-56
2023/11/13 02:11:25;;;;;;;51.30;29.95;;;7.00;99.90;;;;;;5099941;27;20241;-55
2023/11/13 02:13:53;;;;;;;75.85;29.20;;;7.00;99.90;;;;;;5125505;27;20180;-59
2023/11/13 02:16:20;;;;;;;47.80;27.25;;;7.00;99.90;;;;;;5106740;27;20216;-57
2023/11/13 02:18:47;;;;;;;82.43;27.77;;;7.00;99.90;;;;;;5105112;27;20214;-55
2023/11/13 02:21:13;;;;;;;77.70;29.17;;;7.00;99.90;;;;;;5124723;27;20664;-58
2023/11/13 02:23:39;;;;;;;52.90;28.35;;;7.00;99.90;;;;;;5123544;27;20195;-56
2023/11/13 02:26:14;;;;;;;56.35;28.08;;;7.00;99.90;;;;;;5099870;27;21192;-57
2023/11/13 02:28:41;;;;;;;48.05;26.77;;;7.00;99.90;;;;;;5101552;27;20196;-57
2023/11/13 02:31:07;;;;;;;46.30;26.83;;;6.90;99.90;;;;;;5124431;27;20188;-56
2023/11/13 02:33:33;;;;;;;54.15;27.23;;;6.90;99.90;;;;;;5106840;27;20215;-59
2023/11/13 02:35:59;;;;;;;47.35;25.77;;;6.90;99.90;;;;;;5104452;27;20207;-56
2023/11/13 02:38:25;;;;;;;57.42;27.30;;;6.90;99.90;;;;;;5122591;27;20268;-57
2023/11/13 02:40:51;;;;;;;64.93;25.95;;;6.90;99.90;;;;;;5096283;27;20203;-55
2023/11/13 02:43:17;;;;;;;90.18;26.25;;;6.80;99.90;;;;;;5124910;27;20555;-53
2023/11/13 02:45:43;;;;;;;56.00;26.38;;;6.80;99.90;;;;;;5123490;27;20240;-57
2023/11/13 02:48:09;;;;;;;71.80;26.83;;;6.80;99.90;;;;;;5096461;27;20396;-57
2023/11/13 02:50:36;;;;;;;55.42;26.27;;;6.80;99.90;;;;;;5124525;27;20189;-58
2023/11/13 02:53:01;;;;;;;50.55;25.95;;;6.80;99.90;;;;;;5123464;27;20195;-54
2023/11/13 02:55:27;;;;;;;59.08;26.50;;;6.70;99.90;;;;;;5121897;27;20554;-55
2023/11/13 02:57:54;;;;;;;51.30;26.83;;;6.70;99.90;;;;;;5106063;27;20245;-58
2023/11/13 03:00:20;;;;;;;70.57;28.25;;;6.70;99.90;;;;;;5123357;27;20189;-58
2023/11/13 03:02:47;;;;;;;69.07;28.38;;;6.70;99.90;;;;;;5106444;27;20180;-58
2023/11/13 03:05:13;;;;;;;65.13;28.23;;;6.70;99.90;;;;;;5122874;27;20216;-60
2023/11/13 03:07:39;;;;;;;74.10;28.08;;;6.70;99.90;;;;;;5124026;27;20184;-56
2023/11/13 03:10:08;;;;;;;72.00;28.10;;;6.70;99.90;;;;;;5122760;27;20188;-56
2023/11/13 03:12:34;;;;;;;63.92;27.80;;;6.70;99.90;;;;;;5105593;27;20651;-55
2023/11/13 03:15:00;;;;;;;61.70;28.05;;;6.80;99.90;;;;;;5122407;27;20229;-57
2023/11/13 03:17:26;;;;;;;75.68;29.20;;;6.80;99.90;;;;;;5123105;27;20204;-59
2023/11/13 03:19:52;;;;;;;74.60;28.63;;;6.80;99.90;;;;;;5123745;27;20176;-56
2023/11/13 03:22:18;;;;;;;60.90;28.80;;;6.80;99.90;;;;;;5105250;27;20211;-60
2023/11/13 03:24:46;;;;;;;77.15;29.08;;;6.80;99.90;;;;;;5102933;27;20213;-57
2023/11/13 03:27:12;;;;;;;67.80;29.90;;;6.80;99.90;;;;;;5105881;27;20196;-56
2023/11/13 03:29:39;;;;;;;80.05;30.27;;;6.80;99.90;;;;;;5122404;27;20992;-57
2023/11/13 03:32:05;;;;;;;76.93;28.92;;;6.80;99.90;;;;;;5104853;27;20219;-55
2023/11/13 03:34:32;;;;;;;83.45;29.13;;;6.80;99.90;;;;;;5105215;27;20552;-54
2023/11/13 03:36:58;;;;;;;48.75;29.15;;;6.80;99.90;;;;;;5120958;27;20213;-58
2023/11/13 03:39:26;;;;;;;59.75;30.25;;;6.80;99.90;;;;;;5104683;27;20189;-57
2023/11/13 03:41:52;;;;;;;49.85;28.52;;;6.80;99.90;;;;;;5104950;27;20208;-55
2023/11/13 03:44:18;;;;;;;53.88;27.63;;;6.80;99.90;;;;;;5122637;27;20240;-59
2023/11/13 03:46:44;;;;;;;48.92;27.50;;;6.80;99.90;;;;;;5096746;27;20196;-58
2023/11/13 03:49:09;;;;;;;52.67;28.88;;;6.70;99.90;;;;;;5088053;27;20184;-58
2023/11/13 03:51:35;;;;;;;44.40;27.10;;;6.70;99.90;;;;;;5104278;27;20283;-57
2023/11/13 03:54:01;;;;;;;52.72;27.60;;;6.70;99.90;;;;;;5122237;27;20181;-58
2023/11/13 03:56:28;;;;;;;50.30;28.02;;;6.70;99.90;;;;;;5094270;27;20189;-56
2023/11/13 03:58:53;;;;;;;46.33;28.67;;;6.70;99.90;;;;;;5102494;27;20524;-58
2023/11/13 04:01:20;;;;;;;47.03;29.88;;;6.70;99.90;;;;;;5120510;27;20192;-55
2023/11/13 04:03:46;;;;;;;53.42;28.52;;;6.60;99.90;;;;;;5089451;27;20196;-57
2023/11/13 04:06:12;;;;;;;47.53;28.00;;;6.60;99.90;;;;;;5087362;27;20196;-58
2023/11/13 04:08:38;;;;;;;44.72;29.23;;;6.50;99.90;;;;;;5123044;27;20188;-56
2023/11/13 04:11:05;;;;;;;46.60;28.70;;;6.50;99.90;;;;;;5121844;27;20225;-56
2023/11/13 04:13:36;;;;;;;45.65;28.88;;;6.50;99.90;;;;;;5104367;27;20192;-57
2023/11/13 04:16:03;;;;;;;44.47;28.60;;;6.50;99.90;;;;;;5093590;27;20601;-56
2023/11/13 04:18:31;;;;;;;51.08;29.25;;;6.40;99.90;;;;;;5122277;27;20299;-56
2023/11/13 04:20:57;;;;;;;44.53;28.17;;;6.30;99.90;;;;;;5090510;28;20195;-53
2023/11/13 04:23:24;;;;;;;40.55;28.55;;;6.30;99.90;;;;;;5095863;27;20192;-53
2023/11/13 04:25:51;;;;;;;49.47;28.63;;;6.30;99.90;;;;;;5120782;27;20212;-57
2023/11/13 04:28:19;;;;;;;46.42;28.88;;;6.20;99.90;;;;;;5121815;27;20191;-54
2023/11/13 04:30:46;;;;;;;47.28;28.65;;;6.20;99.90;;;;;;5122531;27;20329;-58
2023/11/13 04:33:13;;;;;;;47.67;28.77;;;6.20;99.90;;;;;;5123052;27;20185;-56
2023/11/13 04:35:39;;;;;;;46.45;29.20;;;6.10;99.90;;;;;;5122364;27;20191;-55
2023/11/13 04:38:05;;;;;;;42.35;27.40;;;6.10;99.90;;;;;;5119819;27;20189;-54
2023/11/13 04:40:31;;;;;;;41.33;28.00;;;6.10;99.90;;;;;;5120860;27;20193;-58
2023/11/13 04:42:59;;;;;;;46.03;27.98;;;6.10;99.90;;;;;;5122228;27;20196;-58
2023/11/13 04:45:25;;;;;;;42.10;27.60;;;6.10;99.90;;;;;;5122017;27;20231;-57
2023/11/13 04:47:51;;;;;;;41.92;27.40;;;6.10;99.90;;;;;;5121114;27;20206;-57
2023/11/13 04:50:18;;;;;;;43.05;27.02;;;6.00;99.90;;;;;;5118877;27;21046;-56
2023/11/13 04:52:44;;;;;;;40.75;26.17;;;6.00;99.90;;;;;;5121277;27;20244;-57
2023/11/13 04:55:10;;;;;;;38.47;26.42;;;6.00;99.90;;;;;;5121577;27;20188;-57
2023/11/13 04:57:36;;;;;;;44.13;26.45;;;6.00;99.90;;;;;;5121912;27;20219;-56
2023/11/13 05:00:06;;;;;;;41.90;26.33;;;6.00;99.90;;;;;;5120654;27;20369;-58
2023/11/13 05:02:37;;;;;;;39.97;25.85;;;5.90;99.90;;;;;;5120657;28;20196;-57
2023/11/13 05:05:04;;;;;;;41.28;27.33;;;5.90;99.90;;;;;;5120471;28;20765;-57
2023/11/13 05:07:30;;;;;;;37.63;25.85;;;5.90;99.90;;;;;;5122273;28;20207;-56
2023/11/13 05:09:55;;;;;;;42.75;26.23;;;5.80;99.90;;;;;;5121662;28;20597;-58
2023/11/13 05:12:22;;;;;;;44.53;26.65;;;5.80;99.90;;;;;;5120710;28;20195;-58
2023/11/13 05:14:48;;;;;;;41.30;25.95;;;5.80;99.90;;;;;;5121133;28;20188;-59
2023/11/13 05:17:14;;;;;;;41.78;26.98;;;5.80;99.90;;;;;;5087663;28;20172;-56
2023/11/13 05:19:40;;;;;;;36.53;24.67;;;5.80;99.90;;;;;;5120471;28;20672;-59
2023/11/13 05:22:06;;;;;;;36.50;23.77;;;5.70;99.90;;;;;;5098900;28;20188;-54
2023/11/13 05:24:32;;;;;;;37.35;23.13;;;5.70;99.90;;;;;;5119114;28;20697;-57
2023/11/13 05:26:58;;;;;;;37.28;23.50;;;5.60;99.90;;;;;;5121258;28;20193;-58
2023/11/13 05:29:24;;;;;;;32.80;22.13;;;5.60;99.90;;;;;;5102122;28;20187;-57
2023/11/13 05:31:51;;;;;;;35.63;22.20;;;5.50;99.90;;;;;;5122178;27;20550;-60
2023/11/13 05:34:17;;;;;;;43.72;23.80;;;5.40;99.90;;;;;;5093165;27;21069;-59
2023/11/13 05:36:43;;;;;;;32.47;22.30;;;5.40;99.90;;;;;;5107389;27;20184;-59
2023/11/13 05:39:10;;;;;;;43.33;23.88;;;5.30;99.90;;;;;;5123305;27;20265;-57
2023/11/13 05:41:39;;;;;;;48.97;23.77;;;5.30;99.90;;;;;;5123997;27;20271;-58
2023/11/13 05:44:05;;;;;;;40.85;24.90;;;5.30;99.90;;;;;;5123132;27;20207;-58
2023/11/13 05:46:31;;;;;;;38.72;24.13;;;5.20;99.90;;;;;;5125323;27;20199;-58
2023/11/13 05:48:57;;;;;;;39.90;25.83;;;5.20;99.90;;;;;;5124148;27;20242;-58
2023/11/13 05:51:23;;;;;;;39.78;25.00;;;5.20;99.90;;;;;;5125374;27;20188;-58
2023/11/13 05:53:49;;;;;;;39.92;25.38;;;5.30;99.90;;;;;;5123221;27;20185;-59
2023/11/13 05:56:16;;;;;;;37.70;26.02;;;5.30;99.90;;;;;;5124189;27;20188;-56
2023/11/13 05:58:42;;;;;;;45.75;29.15;;;5.30;99.90;;;;;;5123429;27;20431;-54
2023/11/13 06:01:08;;;;;;;42.45;26.13;;;5.30;99.90;;;;;;5124285;27;20192;-59
2023/11/13 06:03:34;;;;;;;39.40;25.63;;;5.30;99.90;;;;;;5105551;27;20212;-57
2023/11/13 06:06:00;;;;;;;37.40;25.55;;;5.30;99.90;;;;;;5122334;27;20220;-56
2023/11/13 06:08:26;;;;;;;39.55;25.02;;;5.30;99.90;;;;;;5123506;27;20220;-59
2023/11/13 06:10:55;;;;;;;38.97;24.63;;;5.30;99.90;;;;;;5124334;27;21133;-56
2023/11/13 06:13:26;;;;;;;37.22;25.00;;;5.30;99.90;;;;;;5095546;27;20193;-58
2023/11/13 06:15:55;;;;;;;35.25;24.58;;;5.30;99.90;;;;;;5124089;27;20177;-56
2023/11/13 06:18:21;;;;;;;38.95;23.23;;;5.30;99.90;;;;;;5122442;27;20173;-57
2023/11/13 06:20:48;;;;;;;42.33;24.10;;;5.30;99.90;;;;;;5124064;27;20219;-62
2023/11/13 06:23:14;;;;;;;37.42;23.40;;;5.30;99.90;;;;;;5123293;27;20676;-52
2023/11/13 06:25:41;;;;;;;39.22;23.98;;;5.30;99.90;;;;;;5124347;27;20779;-57
2023/11/13 06:28:08;;;;;;;36.67;24.10;;;5.30;99.90;;;;;;5104577;27;20207;-57
2023/11/13 06:30:34;;;;;;;36.55;24.40;;;5.20;99.90;;;;;;5122932;27;20218;-57
2023/11/13 06:33:02;;;;;;;36.58;24.20;;;5.30;99.90;;;;;;5122306;27;20181;-59
2023/11/13 06:35:28;;;;;;;38.90;24.08;;;5.30;99.90;;;;;;5090367;27;20180;-57
2023/11/13 06:37:56;;;;;;;38.67;23.30;;;5.30;99.90;;;;;;5123331;27;20177;-55
2023/11/13 06:40:22;;;;;;;38.28;24.60;;;5.30;99.90;;;;;;5102914;27;20229;-57
2023/11/13 06:42:48;;;;;;;42.35;25.92;;;5.30;99.90;;;;;;5087790;27;20209;-59
2023/11/13 06:45:15;;;;;;;38.85;24.65;;;5.30;99.90;;;;;;5104556;27;20232;-54
2023/11/13 06:47:50;;;;;;;36.45;23.13;;;5.30;99.90;;;;;;5123742;27;20275;-54
2023/11/13 06:50:19;;;;;;;37.40;24.90;;;5.20;99.90;;;;;;5122107;27;20205;-57
2023/11/13 06:52:45;;;;;;;37.92;24.60;;;5.30;99.90;;;;;;5122738;27;20683;-61
2023/11/13 06:55:13;;;;;;;39.30;24.10;;;5.30;99.90;;;;;;5104502;27;20192;-56
2023/11/13 06:57:43;;;;;;;39.33;25.70;;;5.30;99.90;;;;;;5097499;27;20197;-56
2023/11/13 07:00:10;;;;;;;47.80;28.90;;;5.30;99.90;;;;;;5123155;27;20193;-58
2023/11/13 07:02:39;;;;;;;43.10;26.00;;;5.30;99.90;;;;;;5122877;27;20185;-59
2023/11/13 07:05:10;;;;;;;38.63;24.27;;;5.30;99.90;;;;;;5123274;27;20266;-61
2023/11/13 07:07:40;;;;;;;38.47;24.33;;;5.30;99.90;;;;;;5091001;27;20191;-53
2023/11/13 07:10:06;;;;;;;40.35;25.40;;;5.30;99.90;;;;;;5102706;27;20245;-51
2023/11/13 07:12:37;;;;;;;39.72;24.45;;;5.30;99.90;;;;;;5123109;27;20660;-54
2023/11/13 07:15:03;;;;;;;41.10;23.42;;;5.30;99.90;;;;;;5104890;27;20648;-54
2023/11/13 07:17:30;;;;;;;35.03;23.05;;;5.30;99.90;;;;;;5105381;27;20274;-61
2023/11/13 07:19:56;;;;;;;37.35;23.42;;;5.40;99.90;;;;;;5105616;27;20257;-53
2023/11/13 07:22:22;;;;;;;35.55;22.63;;;5.40;99.90;;;;;;5121204;27;20192;-59
2023/11/13 07:24:49;;;;;;;38.88;23.35;;;5.40;99.90;;;;;;5098579;27;20208;-58
2023/11/13 07:27:15;;;;;;;32.85;21.88;;;5.40;99.90;;;;;;5097517;27;20661;-55
2023/11/13 07:29:44;;;;;;;36.20;22.17;;;5.40;99.90;;;;;;5104150;27;20184;-58
2023/11/13 07:32:11;;;;;;;34.35;21.98;;;5.40;99.90;;;;;;5122188;27;20212;-53
2023/11/13 07:34:37;;;;;;;40.05;22.77;;;5.50;99.90;;;;;;5122969;27;20281;-57
2023/11/13 07:37:03;;;;;;;34.85;20.98;;;5.50;99.90;;;;;;5104919;27;20263;-61
2023/11/13 07:39:31;;;;;;;35.22;20.73;;;5.50;99.90;;;;;;5098869;27;20187;-57
2023/11/13 07:42:00;;;;;;;38.50;22.38;;;5.60;99.90;;;;;;5103259;27;20203;-56
2023/11/13 07:44:29;;;;;;;33.35;21.38;;;5.60;99.90;;;;;;5120863;27;20262;-58
2023/11/13 07:46:56;;;;;;;34.85;20.50;;;5.60;99.90;;;;;;5121844;27;20257;-61
2023/11/13 07:49:22;;;;;;;36.92;21.10;;;5.70;99.90;;;;;;5121211;27;20566;-58
2023/11/13 07:51:48;;;;;;;28.75;19.90;;;5.70;99.90;;;;;;5102665;27;20180;-57
2023/11/13 07:54:15;;;;;;;28.70;18.90;;;5.70;99.90;;;;;;5101100;27;20179;-57
2023/11/13 07:56:41;;;;;;;31.60;20.10;;;5.80;99.90;;;;;;5086079;27;20197;-56
2023/11/13 07:59:08;;;;;;;26.65;18.52;;;5.80;99.90;;;;;;5122054;27;20188;-59
2023/11/13 08:01:34;;;;;;;31.67;18.92;;;5.80;99.90;;;;;;5120830;27;20272;-58
2023/11/13 08:04:01;;;;;;;26.17;18.17;;;5.90;99.90;;;;;;5103245;27;20192;-60
2023/11/13 08:06:28;;;;;;;27.98;18.67;;;5.90;99.90;;;;;;5099887;27;20324;-55
2023/11/13 08:08:55;;;;;;;28.20;17.85;;;6.00;99.90;;;;;;5104263;27;20215;-58
2023/11/13 08:11:23;;;;;;;22.42;16.48;;;6.00;99.90;;;;;;5122922;27;20180;-58
2023/11/13 08:13:48;;;;;;;30.48;16.95;;;6.10;99.90;;;;;;5103028;27;21413;-56
2023/11/13 08:16:14;;;;;;;27.10;17.35;;;6.10;99.90;;;;;;5102761;27;20203;-56
2023/11/13 08:18:40;;;;;;;28.30;17.02;;;6.20;99.90;;;;;;5103675;27;20241;-60
2023/11/13 08:21:10;;;;;;;22.85;15.52;;;6.20;99.90;;;;;;5122749;27;20277;-61
2023/11/13 08:23:36;;;;;;;26.92;16.60;;;6.30;99.90;;;;;;5119124;27;20185;-59
2023/11/13 08:26:05;;;;;;;24.58;15.20;;;6.30;99.90;;;;;;5121448;27;20201;-58
2023/11/13 08:28:31;;;;;;;31.70;17.05;;;6.40;99.90;;;;;;5120819;27;20193;-60
2023/11/13 08:31:01;;;;;;;25.90;16.08;;;6.40;99.90;;;;;;5122702;27;21079;-57
2023/11/13 08:33:28;;;;;;;21.92;15.50;;;6.50;99.90;;;;;;5086439;27;20238;-57
2023/11/13 08:35:53;;;;;;;25.77;15.93;;;6.60;99.90;;;;;;5120530;27;20205;-56
2023/11/13 08:38:19;;;;;;;24.30;15.50;;;6.60;99.90;;;;;;5092585;27;20192;-57
2023/11/13 08:40:46;;;;;;;24.85;15.52;;;6.70;99.90;;;;;;5103318;27;20233;-60
2023/11/13 08:43:12;;;;;;;25.88;18.02;;;6.70;99.90;;;;;;5103366;27;20291;-58
2023/11/13 08:45:41;;;;;;;23.85;15.43;;;6.70;99.90;;;;;;5121162;27;20332;-58
2023/11/13 08:48:10;;;;;;;22.50;14.70;;;6.70;99.90;;;;;;5121274;27;20188;-62
2023/11/13 08:50:36;;;;;;;22.15;14.10;;;6.70;99.90;;;;;;5103693;27;20739;-62
2023/11/13 08:53:02;;;;;;;23.40;15.20;;;6.80;99.90;;;;;;5103958;27;20191;-64
2023/11/13 08:55:31;;;;;;;24.00;15.18;;;6.80;99.90;;;;;;5102474;28;20185;-61
2023/11/13 08:57:57;;;;;;;21.65;13.85;;;6.90;99.90;;;;;;5121446;27;20192;-59
2023/11/13 09:00:24;;;;;;;21.25;14.38;;;6.90;99.90;;;;;;5121098;27;20193;-63
2023/11/13 09:02:56;;;;;;;20.98;13.52;;;7.00;99.90;;;;;;5101386;28;20291;-58
2023/11/13 09:05:26;;;;;;;25.17;14.13;;;7.00;99.90;;;;;;5120250;28;20212;-58
2023/11/13 09:07:55;;;;;;;22.88;13.80;;;7.10;99.90;;;;;;5099996;28;20199;-61
2023/11/13 09:10:21;;;;;;;18.98;13.43;;;7.10;99.90;;;;;;5119829;28;20184;-58
2023/11/13 09:12:48;;;;;;;18.58;13.32;;;7.10;99.90;;;;;;5121532;28;20200;-64
2023/11/13 09:15:15;;;;;;;21.40;12.98;;;7.10;99.90;;;;;;5103290;28;20192;-59
2023/11/13 09:17:42;;;;;;;18.80;12.57;;;7.20;99.90;;;;;;5120825;28;20271;-61
2023/11/13 09:20:09;;;;;;;19.25;13.10;;;7.20;99.90;;;;;;5121012;28;21226;-58
2023/11/13 09:22:36;;;;;;;19.73;12.30;;;7.20;99.90;;;;;;5120831;28;20298;-65
2023/11/13 09:25:04;;;;;;;19.08;12.40;;;7.30;99.90;;;;;;5120336;28;20210;-55
2023/11/13 09:27:30;;;;;;;17.85;12.38;;;7.30;99.90;;;;;;5119331;28;20181;-62
2023/11/13 09:29:57;;;;;;;22.88;13.02;;;7.30;99.90;;;;;;5120157;28;20204;-60
2023/11/13 09:32:24;;;;;;;19.35;13.02;;;7.30;99.90;;;;;;5119603;28;20249;-62
2023/11/13 09:34:54;;;;;;;19.13;12.38;;;7.30;99.90;;;;;;5099582;28;20278;-53
2023/11/13 09:37:21;;;;;;;19.48;12.65;;;7.30;99.90;;;;;;5101232;28;20268;-57
2023/11/13 09:39:49;;;;;;;24.00;13.68;;;7.30;99.90;;;;;;5121074;28;20181;-55
2023/11/13 09:42:18;;;;;;;22.65;13.25;;;7.30;99.90;;;;;;5118949;28;20883;-61
2023/11/13 09:44:48;;;;;;;25.73;15.18;;;7.30;99.90;;;;;;5120281;28;20277;-60
2023/11/13 09:47:18;;;;;;;20.13;12.70;;;7.30;99.90;;;;;;5120566;28;20188;-63
2023/11/13 09:49:50;;;;;;;19.35;12.90;;;7.30;99.90;;;;;;5099162;28;20177;-58
2023/11/13 09:52:18;;;;;;;18.63;12.88;;;7.30;99.90;;;;;;5101251;28;20543;-60
2023/11/13 09:54:46;;;;;;;23.40;13.85;;;7.20;99.90;;;;;;5108126;28;20636;-64
2023/11/13 09:57:14;;;;;;;23.58;14.45;;;7.20;99.90;;;;;;5111473;28;20180;-59
2023/11/13 09:59:45;;;;;;;26.13;16.55;;;7.20;99.90;;;;;;5127362;28;20199;-56
2023/11/13 10:02:14;;;;;;;22.35;14.30;;;7.30;99.90;;;;;;5130742;28;20169;-57
2023/11/13 10:04:40;;;;;;;22.48;14.63;;;7.30;99.90;;;;;;5099100;28;20296;-55
2023/11/13 10:07:09;;;;;;;21.40;14.48;;;7.30;99.90;;;;;;5128831;28;20189;-56
2023/11/13 10:09:35;;;;;;;22.40;14.38;;;7.30;99.90;;;;;;5104708;28;20186;-57
2023/11/13 10:12:07;;;;;;;23.80;15.65;;;7.30;99.90;;;;;;5112021;28;20181;-61
2023/11/13 10:14:33;;;;;;;22.55;14.05;;;7.40;99.90;;;;;;5118528;28;20181;-58
2023/11/13 10:17:00;;;;;;;26.10;16.00;;;7.40;99.90;;;;;;5105894;28;20664;-57
2023/11/13 10:19:26;;;;;;;24.38;15.75;;;7.40;99.90;;;;;;5120643;27;20667;-58
2023/11/13 10:21:56;;;;;;;22.98;15.85;;;7.40;99.90;;;;;;5127480;27;20192;-60
2023/11/13 10:24:25;;;;;;;27.38;17.20;;;7.40;99.90;;;;;;5127395;27;20631;-57
2023/11/13 10:26:55;;;;;;;26.02;16.40;;;7.40;99.90;;;;;;5104538;27;20256;-59
2023/11/13 10:29:22;;;;;;;25.58;16.70;;;7.50;99.90;;;;;;5126642;27;20188;-57
2023/11/13 10:46:36;;;;;;;35.38;18.70;;;7.60;99.90;;;;;;5106173;27;20623;-43
2023/11/13 10:49:03;;;;;;;29.13;18.05;;;7.70;99.90;;;;;;5079488;28;20192;-42
2023/11/13 10:51:30;;;;;;;29.10;18.50;;;7.70;99.90;;;;;;5102102;28;20591;-42
2023/11/13 10:53:59;;;;;;;31.83;18.13;;;7.70;99.90;;;;;;5069593;28;20185;-44
2023/11/13 10:56:26;;;;;;;30.30;18.48;;;7.80;99.90;;;;;;5092879;28;20211;-44
2023/11/13 10:58:53;;;;;;;32.83;18.58;;;7.80;99.90;;;;;;5089375;28;20185;-38
2023/11/13 11:01:23;;;;;;;32.05;19.25;;;7.80;99.90;;;;;;5080152;28;20190;-39
2023/11/13 11:03:52;;;;;;;29.67;18.75;;;7.80;99.90;;;;;;5083401;28;20217;-40
2023/11/13 11:06:22;;;;;;;34.22;18.38;;;7.80;99.90;;;;;;5087425;28;20308;-41
2023/11/13 11:08:51;;;;;;;30.25;18.40;;;7.90;99.90;;;;;;5092895;28;20662;-43
2023/11/13 11:11:26;;;;;;;28.55;17.10;;;7.90;99.90;;;;;;5086371;28;20186;-46
2023/11/13 11:13:56;;;;;;;29.30;17.83;;;7.90;99.90;;;;;;5070345;28;20193;-50
2023/11/13 11:17:02;;;;;;;29.38;18.10;;;8.00;99.90;;;;;;5076422;28;20554;-47
2023/11/13 11:19:45;;;;;;;32.42;16.92;;;8.00;99.90;;;;;;5063758;28;20183;-43
2023/11/13 11:22:31;;;;;;;31.33;18.38;;;8.00;99.90;;;;;;5065786;28;20179;-41
2023/11/13 11:25:13;;;;;;;27.45;16.90;;;8.00;99.90;;;;;;5059854;28;20225;-44
2023/11/13 11:27:40;;;;;;;28.48;16.63;;;8.10;99.90;;;;;;5060969;28;20280;-47
2023/11/13 11:30:18;;;;;;;28.20;16.25;;;8.10;99.90;;;;;;5063737;28;20214;-42
2023/11/13 11:32:58;;;;;;;22.60;14.88;;;8.10;99.90;;;;;;5063956;28;20225;-42
2023/11/13 11:35:28;;;;;;;25.15;16.17;;;8.20;99.90;;;;;;5064072;28;20197;-46
2023/11/13 11:38:18;;;;;;;24.33;16.02;;;8.20;99.90;;;;;;5060550;28;20279;-41
2023/11/13 11:40:44;;;;;;;29.77;16.27;;;8.20;99.90;;;;;;5078172;28;20187;-45
2023/11/13 11:43:36;;;;;;;30.33;16.42;;;8.20;99.90;;;;;;5064747;28;20209;-41
2023/11/13 11:46:06;;;;;;;23.48;15.02;;;8.20;99.90;;;;;;5058837;28;20230;-43
2023/11/13 11:48:35;;;;;;;19.95;13.88;;;8.10;99.90;;;;;;5062862;28;20645;-41
2023/11/13 11:51:18;;;;;;;22.88;14.27;;;8.20;99.90;;;;;;5061871;28;20209;-39
2023/11/13 11:53:57;;;;;;;20.17;14.40;;;8.20;99.90;;;;;;5062038;28;20277;-39
2023/11/13 11:56:23;;;;;;;20.85;13.52;;;8.30;99.90;;;;;;5053736;28;20286;-38
2023/11/13 11:58:49;;;;;;;22.20;13.68;;;8.40;99.90;;;;;;5063823;28;20186;-41
2023/11/13 12:01:17;;;;;;;18.38;14.13;;;8.50;99.90;;;;;;5050546;28;20515;-37
2023/11/13 12:03:44;;;;;;;20.85;13.95;;;8.50;99.90;;;;;;5046132;28;20355;-38
2023/11/13 12:06:10;;;;;;;19.17;13.70;;;8.60;99.90;;;;;;5048461;28;20299;-37
2023/11/13 12:08:41;;;;;;;18.90;13.60;;;8.60;99.90;;;;;;5048699;28;20267;-38
2023/11/13 12:11:07;;;;;;;20.15;12.90;;;8.60;99.90;;;;;;5051167;28;20190;-38
2023/11/13 12:13:33;;;;;;;17.02;13.05;;;8.60;99.90;;;;;;5051553;28;20198;-38
2023/11/13 12:16:00;;;;;;;20.42;12.77;;;8.70;99.90;;;;;;5046964;28;20199;-37
2023/11/13 12:18:26;;;;;;;18.88;11.98;;;8.70;99.90;;;;;;5051634;28;20199;-39
2023/11/13 12:20:54;;;;;;;18.00;13.10;;;8.70;99.90;;;;;;5050016;28;20203;-39
2023/11/13 12:23:20;;;;;;;19.17;13.38;;;8.70;99.90;;;;;;5051379;28;20191;-37
2023/11/13 12:25:46;;;;;;;17.95;13.32;;;8.70;99.90;;;;;;5049233;28;20406;-42
2023/11/13 12:28:12;;;;;;;19.60;13.73;;;8.80;99.90;;;;;;5049727;28;20198;-40
2023/11/13 12:30:38;;;;;;;17.02;12.63;;;8.80;99.90;;;;;;5050103;28;20301;-38
2023/11/13 12:33:04;;;;;;;18.13;13.40;;;8.80;99.90;;;;;;5051039;28;20282;-36
2023/11/13 12:35:35;;;;;;;19.02;13.02;;;8.80;99.90;;;;;;5048416;28;20248;-38
2023/11/13 12:38:04;;;;;;;19.27;13.75;;;8.90;99.90;;;;;;5068671;28;20198;-40
2023/11/13 12:40:30;;;;;;;18.00;13.40;;;8.90;99.90;;;;;;5049487;28;20571;-38
2023/11/13 12:42:57;;;;;;;18.98;13.23;;;8.90;99.90;;;;;;5046567;28;20277;-39
2023/11/13 12:45:24;;;;;;;17.60;13.18;;;9.00;99.90;;;;;;5043548;28;20242;-38
2023/11/13 12:47:55;;;;;;;16.85;13.13;;;9.00;99.90;;;;;;5051113;28;20832;-39
2023/11/13 12:50:23;;;;;;;17.23;12.95;;;9.10;99.90;;;;;;5047055;28;20202;-39
2023/11/13 12:52:54;;;;;;;16.92;12.60;;;9.10;99.90;;;;;;5051754;28;20219;-40